Time;durP1;ratioP1;P1;durP2;ratioP2;P2;SDS_P1;SDS_P2;PMS_P1;PMS_P2;Temp;Humidity;BMP_temperature;BMP_pressure;BME280_temperature;BME280_humidity;BME280_pressure;Samples;Min_cycle;Max_cycle;Signal;HPM_P1;HPM_P2
2022/03/01 00:01:54;;;;;;;25.17;13.45;;;;;;;2.57;67.10;102794.06;4968909;28;20134;-76
2022/03/01 00:04:20;;;;;;;25.20;12.93;;;;;;;2.61;66.88;102806.44;4970737;28;20279;-76
2022/03/01 00:06:45;;;;;;;22.75;13.23;;;;;;;2.64;66.81;102803.22;4970618;28;20034;-77
2022/03/01 00:09:11;;;;;;;21.45;13.40;;;;;;;2.64;66.90;102805.81;4984058;28;20031;-77
2022/03/01 00:11:36;;;;;;;25.48;13.50;;;;;;;2.62;66.62;102800.50;4987035;28;20097;-77
2022/03/01 00:14:02;;;;;;;25.13;13.90;;;;;;;2.58;66.15;102807.06;4961715;28;20031;-77
2022/03/01 00:16:27;;;;;;;24.27;12.88;;;;;;;2.55;65.91;102800.72;4977457;28;20054;-77
2022/03/01 00:18:53;;;;;;;24.35;13.20;;;;;;;2.53;66.41;102804.84;4986004;28;20099;-77
2022/03/01 00:21:19;;;;;;;22.52;13.27;;;;;;;2.50;66.36;102799.44;4966905;28;20106;-77
2022/03/01 00:23:44;;;;;;;25.95;13.77;;;;;;;2.47;67.77;102810.34;4962836;28;20030;-77
2022/03/01 00:26:10;;;;;;;24.92;13.98;;;;;;;2.43;67.29;102801.47;4990521;28;20300;-77
2022/03/01 00:28:35;;;;;;;23.75;13.50;;;;;;;2.40;67.11;102801.22;4971156;28;20184;-77
2022/03/01 00:31:00;;;;;;;26.42;13.45;;;;;;;2.37;67.48;102797.44;4982884;28;20743;-77
2022/03/01 00:33:26;;;;;;;25.48;13.50;;;;;;;2.33;67.02;102803.06;4983817;28;20281;-77
2022/03/01 00:35:51;;;;;;;24.90;13.43;;;;;;;2.31;67.67;102804.63;4964190;28;20320;-77
2022/03/01 00:38:17;;;;;;;25.60;13.52;;;;;;;2.26;67.69;102802.53;4982860;28;20293;-77
2022/03/01 00:40:42;;;;;;;21.10;12.13;;;;;;;2.23;67.63;102802.28;4990952;28;20072;-77
2022/03/01 00:43:07;;;;;;;25.13;12.68;;;;;;;2.19;68.25;102797.63;4988445;28;20034;-77
2022/03/01 00:45:32;;;;;;;24.88;12.77;;;;;;;2.17;68.29;102805.97;4966151;28;20296;-78
2022/03/01 00:47:58;;;;;;;25.83;13.50;;;;;;;2.12;68.34;102808.13;4992883;28;20046;-78
2022/03/01 00:50:23;;;;;;;26.70;13.43;;;;;;;2.12;68.18;102808.13;4983171;28;20101;-78
2022/03/01 00:52:48;;;;;;;25.48;13.02;;;;;;;2.12;68.73;102808.13;4983287;28;20204;-77
2022/03/01 00:55:14;;;;;;;23.55;12.77;;;;;;;2.13;68.14;102812.50;4982966;28;20051;-78
2022/03/01 00:57:39;;;;;;;27.58;14.13;;;;;;;2.12;68.35;102808.13;4983518;28;20046;-78
2022/03/01 01:00:07;;;;;;;28.00;13.52;;;;;;;2.12;68.83;102797.84;4984224;28;20147;-78
2022/03/01 01:02:32;;;;;;;25.35;12.98;;;;;;;2.11;68.90;102808.00;4989400;28;20038;-78
2022/03/01 01:04:58;;;;;;;29.67;13.38;;;;;;;2.07;68.18;102810.28;4972362;28;20057;-78
2022/03/01 01:07:25;;;;;;;24.98;13.77;;;;;;;2.05;67.73;102810.91;4965676;28;20034;-78
2022/03/01 01:09:51;;;;;;;25.85;13.77;;;;;;;2.03;68.02;102802.16;4983245;28;20035;-78
2022/03/01 01:12:16;;;;;;;24.25;13.35;;;;;;;2.01;68.58;102809.72;4990065;28;20117;-78
2022/03/01 01:14:42;;;;;;;27.98;13.50;;;;;;;2.01;68.19;102803.69;4995593;28;20213;-78
2022/03/01 01:17:07;;;;;;;26.48;14.23;;;;;;;2.00;68.37;102802.78;4987258;28;20057;-77
2022/03/01 01:19:32;;;;;;;29.65;15.90;;;;;;;2.02;68.02;102802.94;4991592;28;20038;-77
2022/03/01 01:22:39;;;;;;;30.33;15.35;;;;;;;2.02;68.38;102811.53;4985784;28;20361;-77
2022/03/01 01:25:02;;;;;;;27.85;14.45;;;;;;;2.03;68.93;102804.75;4986017;28;20046;-78
2022/03/01 01:27:27;;;;;;;29.45;15.07;;;;;;;2.01;68.67;102806.25;4987615;28;20035;-77
2022/03/01 01:29:53;;;;;;;27.77;15.52;;;;;;;2.00;68.03;102809.56;4984569;28;20061;-78
2022/03/01 01:32:18;;;;;;;29.80;16.63;;;;;;;2.00;68.79;102796.72;4987888;28;20031;-78
2022/03/01 01:34:43;;;;;;;29.90;16.98;;;;;;;2.00;67.97;102807.00;4969517;28;20352;-78
2022/03/01 01:37:09;;;;;;;31.83;16.30;;;;;;;1.98;68.30;102803.41;4984230;28;20102;-78
2022/03/01 01:39:34;;;;;;;29.45;17.05;;;;;;;1.96;68.54;102804.94;4990313;28;20178;-78
2022/03/01 01:41:59;;;;;;;32.95;17.02;;;;;;;1.94;68.48;102804.81;4987429;28;20034;-78
2022/03/01 01:44:25;;;;;;;34.97;17.77;;;;;;;1.94;68.90;102809.03;4987674;28;20104;-78
2022/03/01 01:46:50;;;;;;;31.80;16.77;;;;;;;1.92;68.72;102804.66;4969971;28;20034;-78
2022/03/01 01:49:15;;;;;;;32.60;16.83;;;;;;;1.91;68.83;102801.94;4970110;28;20309;-78
2022/03/01 01:51:41;;;;;;;32.35;15.90;;;;;;;1.90;69.21;102801.03;4966054;28;20113;-78
2022/03/01 01:54:06;;;;;;;31.40;15.77;;;;;;;1.88;69.42;102797.44;4989123;28;20038;-79
2022/03/01 01:56:33;;;;;;;34.35;17.42;;;;;;;1.86;69.11;102796.38;4987770;28;20171;-78
2022/03/01 01:58:58;;;;;;;33.20;15.18;;;;;;;1.84;68.77;102802.16;4985346;28;20043;-79
2022/03/01 02:01:24;;;;;;;34.97;16.65;;;;;;;1.83;69.30;102800.38;4984449;28;20046;-79
2022/03/01 02:03:49;;;;;;;30.25;16.23;;;;;;;1.82;69.38;102799.44;4987454;28;20057;-79
2022/03/01 02:06:15;;;;;;;31.55;16.30;;;;;;;1.83;69.56;102792.66;4985419;28;20043;-79
2022/03/01 02:08:40;;;;;;;34.35;16.55;;;;;;;1.83;69.38;102788.41;4978542;28;20093;-79
2022/03/01 02:11:06;;;;;;;35.85;16.70;;;;;;;1.86;69.70;102792.94;4982600;28;20105;-79
2022/03/01 02:13:31;;;;;;;33.05;16.40;;;;;;;1.85;69.36;102789.44;4965629;28;20038;-79
2022/03/01 02:15:58;;;;;;;37.17;16.60;;;;;;;1.84;70.06;102784.16;4991348;28;20094;-79
2022/03/01 02:18:23;;;;;;;35.50;17.08;;;;;;;1.82;69.61;102785.69;4985674;28;20073;-79
2022/03/01 02:20:49;;;;;;;35.33;17.17;;;;;;;1.80;69.25;102784.66;4978106;28;20047;-79
2022/03/01 02:23:14;;;;;;;35.67;17.38;;;;;;;1.76;69.12;102786.03;4969273;28;20166;-79
2022/03/01 02:25:40;;;;;;;32.53;16.73;;;;;;;1.73;69.92;102791.81;4995754;28;20043;-80
2022/03/01 02:28:05;;;;;;;35.60;17.17;;;;;;;1.65;70.34;102789.31;4986837;28;20079;-79
2022/03/01 02:30:32;;;;;;;34.17;16.58;;;;;;;1.58;70.89;102794.63;4985730;28;20352;-79
2022/03/01 02:32:57;;;;;;;34.80;16.85;;;;;;;1.52;70.64;102792.41;4989207;28;20038;-79
2022/03/01 02:35:23;;;;;;;32.83;16.65;;;;;;;1.44;71.30;102790.81;4979110;28;20094;-79
2022/03/01 02:37:49;;;;;;;35.80;17.00;;;;;;;1.36;71.68;102793.59;4978782;28;20122;-79
2022/03/01 02:40:14;;;;;;;35.92;17.38;;;;;;;1.31;71.46;102783.66;4974036;28;20037;-79
2022/03/01 02:42:43;;;;;;;34.83;17.38;;;;;;;1.27;72.15;102779.88;4983189;28;20043;-79
2022/03/01 02:45:10;;;;;;;35.13;17.13;;;;;;;1.26;71.68;102787.44;4985309;28;20058;-80
2022/03/01 02:47:37;;;;;;;38.88;17.85;;;;;;;1.21;72.21;102777.63;4993054;28;20261;-79
2022/03/01 02:50:05;;;;;;;37.78;17.52;;;;;;;1.21;72.87;102772.50;4987297;28;20038;-80
2022/03/01 02:52:31;;;;;;;36.77;17.17;;;;;;;1.24;72.35;102779.59;4994076;28;20098;-80
2022/03/01 02:54:56;;;;;;;39.22;17.80;;;;;;;1.24;72.48;102776.13;4989675;28;20290;-80
2022/03/01 02:57:22;;;;;;;44.78;18.45;;;;;;;1.24;72.79;102773.56;4983700;28;20046;-80
2022/03/01 02:59:47;;;;;;;39.03;18.08;;;;;;;1.25;72.37;102763.44;4990092;28;20038;-80
2022/03/01 03:02:15;;;;;;;41.47;18.25;;;;;;;1.28;72.26;102763.72;4985051;28;20094;-80
2022/03/01 03:04:41;;;;;;;40.67;18.30;;;;;;;1.31;71.96;102760.53;4969456;28;20352;-80
2022/03/01 03:07:06;;;;;;;43.53;18.23;;;;;;;1.35;72.10;102766.09;4985483;28;20038;-80
2022/03/01 03:09:32;;;;;;;41.08;17.73;;;;;;;1.38;72.20;102768.03;4985153;28;20291;-80
2022/03/01 03:11:57;;;;;;;43.38;18.92;;;;;;;1.38;72.33;102763.81;4986808;28;20285;-79
2022/03/01 03:14:23;;;;;;;40.92;18.02;;;;;;;1.39;71.95;102769.81;4984843;28;20293;-80
2022/03/01 03:16:48;;;;;;;44.33;18.55;;;;;;;1.39;71.58;102763.03;4980854;28;20090;-80
2022/03/01 03:19:15;;;;;;;48.35;20.42;;;;;;;1.39;71.99;102768.19;4968114;28;20057;-80
2022/03/01 03:21:42;;;;;;;46.78;20.70;;;;;;;1.40;71.71;102763.94;4985002;28;20039;-80
2022/03/01 03:24:08;;;;;;;48.63;19.60;;;;;;;1.39;71.95;102762.13;4984258;28;20030;-80
2022/03/01 03:26:33;;;;;;;50.63;20.00;;;;;;;1.41;72.29;102765.75;4985273;28;20023;-80
2022/03/01 03:28:58;;;;;;;49.03;20.85;;;;;;;1.43;71.76;102769.34;4989591;28;20026;-80
2022/03/01 03:31:24;;;;;;;49.60;20.50;;;;;;;1.45;71.50;102762.72;4969643;28;20050;-79
2022/03/01 03:33:49;;;;;;;50.00;22.17;;;;;;;1.45;71.79;102752.44;4971033;28;20193;-80
2022/03/01 03:36:14;;;;;;;49.90;20.70;;;;;;;1.46;71.74;102761.91;4987911;28;20188;-80
2022/03/01 03:38:40;;;;;;;57.35;22.60;;;;;;;1.49;71.63;102769.94;4987344;28;20058;-80
2022/03/01 03:41:05;;;;;;;58.80;22.35;;;;;;;1.50;71.66;102765.69;4966438;28;20034;-80
2022/03/01 03:43:30;;;;;;;61.65;21.80;;;;;;;1.49;71.01;102764.81;4992847;28;20109;-79
2022/03/01 03:45:56;;;;;;;67.07;24.05;;;;;;;1.51;71.77;102762.38;4982908;28;20042;-80
2022/03/01 03:48:21;;;;;;;59.28;22.00;;;;;;;1.51;71.31;102763.25;4986738;28;20042;-81
2022/03/01 03:50:47;;;;;;;60.85;23.25;;;;;;;1.50;71.19;102765.69;4963062;28;20042;-80
2022/03/01 03:53:12;;;;;;;64.45;22.77;;;;;;;1.47;71.73;102761.16;4974080;28;20048;-81
2022/03/01 03:55:38;;;;;;;63.25;23.67;;;;;;;1.47;72.35;102767.97;4961446;28;20102;-81
2022/03/01 03:58:03;;;;;;;65.90;24.73;;;;;;;1.44;72.28;102763.47;4991350;28;20041;-81
2022/03/01 04:00:28;;;;;;;65.30;23.33;;;;;;;1.43;72.10;102764.22;4984173;28;20031;-81
2022/03/01 04:02:54;;;;;;;58.85;23.85;;;;;;;1.44;71.32;102760.91;4985882;28;20039;-81
2022/03/01 04:05:19;;;;;;;61.70;24.38;;;;;;;1.44;71.19;102766.03;4999375;28;20050;-81
2022/03/01 04:07:46;;;;;;;59.63;23.23;;;;;;;1.44;71.65;102771.16;4977309;28;20054;-81
2022/03/01 04:10:12;;;;;;;62.60;23.55;;;;;;;1.45;72.38;102764.34;4984867;28;20047;-81
2022/03/01 04:12:38;;;;;;;61.13;23.50;;;;;;;1.44;72.37;102766.03;4973042;28;20053;-81
2022/03/01 04:15:06;;;;;;;64.20;24.52;;;;;;;1.42;72.49;102765.00;4988074;28;20047;-81
2022/03/01 04:17:31;;;;;;;58.75;23.13;;;;;;;1.39;72.61;102762.13;4994303;28;20038;-80
2022/03/01 04:19:57;;;;;;;64.53;23.60;;;;;;;1.36;73.03;102761.84;4994774;28;20057;-80
2022/03/01 04:22:22;;;;;;;63.25;24.80;;;;;;;1.33;73.79;102766.69;4986170;28;20098;-80
2022/03/01 04:24:48;;;;;;;64.63;23.48;;;;;;;1.33;73.21;102765.06;4987659;28;20035;-80
2022/03/01 04:27:13;;;;;;;66.82;25.20;;;;;;;1.34;72.82;102768.53;4996045;28;20027;-80
2022/03/01 04:29:38;;;;;;;63.22;24.50;;;;;;;1.37;72.50;102768.78;4981780;28;20058;-80
2022/03/01 04:32:05;;;;;;;63.38;23.42;;;;;;;1.38;73.16;102778.31;4987697;28;20208;-80
2022/03/01 04:34:30;;;;;;;57.10;22.33;;;;;;;1.38;74.07;102770.63;4984870;28;20039;-80
2022/03/01 04:36:55;;;;;;;61.35;23.00;;;;;;;1.39;74.56;102775.88;4984013;28;20335;-80
2022/03/01 04:39:21;;;;;;;55.03;23.02;;;;;;;1.39;75.68;102774.97;4979910;28;20039;-80
2022/03/01 04:41:46;;;;;;;58.35;23.33;;;;;;;1.38;75.74;102775.75;4986038;28;20030;-80
2022/03/01 04:44:12;;;;;;;58.88;22.77;;;;;;;1.36;75.55;102773.03;4985508;28;20094;-80
2022/03/01 04:46:37;;;;;;;54.28;22.45;;;;;;;1.37;74.88;102766.22;4967917;28;20476;-81
2022/03/01 04:49:03;;;;;;;56.13;23.17;;;;;;;1.39;75.70;102769.81;4988283;28;20377;-81
2022/03/01 04:51:29;;;;;;;54.33;23.17;;;;;;;1.38;75.65;102771.50;4984835;28;20037;-81
2022/03/01 04:53:54;;;;;;;61.13;23.25;;;;;;;1.35;76.06;102760.06;4987595;28;20067;-81
2022/03/01 04:56:20;;;;;;;53.15;21.70;;;;;;;1.33;76.47;102765.06;4982971;28;20098;-81
2022/03/01 04:58:45;;;;;;;55.40;22.10;;;;;;;1.34;76.38;102760.81;4982979;28;20027;-81
2022/03/01 05:01:11;;;;;;;55.45;23.17;;;;;;;1.31;76.20;102756.28;4989421;28;20042;-80
2022/03/01 05:03:36;;;;;;;52.65;22.10;;;;;;;1.29;76.06;102760.41;4992614;28;20050;-81
2022/03/01 05:06:02;;;;;;;51.80;21.10;;;;;;;1.30;75.63;102763.84;4992320;28;20038;-81
2022/03/01 05:08:30;;;;;;;55.42;22.70;;;;;;;1.31;75.62;102757.97;4964815;28;20058;-81
2022/03/01 05:11:00;;;;;;;57.83;23.15;;;;;;;1.32;75.57;102759.78;4992458;28;20035;-81
2022/03/01 05:13:26;;;;;;;57.30;22.83;;;;;;;1.31;75.57;102757.97;4968425;28;20054;-81
2022/03/01 05:15:51;;;;;;;53.88;22.27;;;;;;;1.31;75.16;102750.25;4983538;28;20216;-81
2022/03/01 05:18:17;;;;;;;52.85;23.05;;;;;;;1.33;74.50;102757.34;4991022;28;20043;-80
2022/03/01 05:20:42;;;;;;;56.63;22.70;;;;;;;1.36;73.97;102756.72;4980665;28;20045;-81
2022/03/01 05:23:08;;;;;;;56.67;22.95;;;;;;;1.36;73.57;102766.97;4997158;28;20061;-80
2022/03/01 05:25:33;;;;;;;51.65;24.70;;;;;;;1.36;73.56;102757.63;4988753;28;20033;-80
2022/03/01 05:27:58;;;;;;;54.10;23.33;;;;;;;1.38;72.99;102755.19;4986951;28;20045;-81
2022/03/01 05:30:24;;;;;;;52.88;21.17;;;;;;;1.37;72.99;102753.38;4980149;28;20043;-80
2022/03/01 05:32:51;;;;;;;51.65;21.23;;;;;;;1.37;72.56;102748.25;4982860;28;20062;-80
2022/03/01 05:35:19;;;;;;;51.78;20.65;;;;;;;1.38;73.27;102734.66;4982779;28;20042;-80
2022/03/01 05:37:55;;;;;;;53.60;20.67;;;;;;;1.40;73.88;102735.69;4965561;28;20031;-80
2022/03/01 05:40:23;;;;;;;49.08;20.13;;;;;;;1.42;73.02;102736.75;4982167;28;20031;-80
2022/03/01 05:42:48;;;;;;;51.50;21.13;;;;;;;1.43;72.58;102735.97;4965421;28;20297;-80
2022/03/01 05:45:14;;;;;;;53.70;20.55;;;;;;;1.45;71.64;102729.31;4982645;28;20038;-81
2022/03/01 05:47:42;;;;;;;52.03;21.60;;;;;;;1.47;71.96;102729.44;4977817;28;20038;-81
2022/03/01 05:50:09;;;;;;;52.08;21.90;;;;;;;1.48;71.85;102727.03;4975334;28;20042;-80
2022/03/01 05:52:35;;;;;;;55.00;21.40;;;;;;;1.48;71.37;102727.03;4982568;28;20278;-80
2022/03/01 05:55:00;;;;;;;52.88;19.45;;;;;;;1.49;71.31;102722.78;4969463;28;20031;-80
2022/03/01 05:57:28;;;;;;;50.30;20.02;;;;;;;1.50;71.43;102730.63;4981739;28;20042;-81
2022/03/01 05:59:55;;;;;;;50.45;21.63;;;;;;;1.49;71.48;102733.03;4968232;28;20051;-80
2022/03/01 06:02:21;;;;;;;50.33;20.23;;;;;;;1.48;71.94;102736.41;4982430;28;20074;-80
2022/03/01 06:04:46;;;;;;;51.65;20.02;;;;;;;1.45;72.11;102731.88;4986067;28;20292;-80
2022/03/01 06:07:11;;;;;;;50.65;20.60;;;;;;;1.43;72.29;102728.25;4985989;28;20034;-80
2022/03/01 06:09:37;;;;;;;50.25;20.88;;;;;;;1.43;71.88;102732.50;4969451;28;20039;-80
2022/03/01 06:12:03;;;;;;;53.95;21.33;;;;;;;1.42;71.30;102731.59;4985798;28;20082;-80
2022/03/01 06:14:32;;;;;;;54.45;20.52;;;;;;;1.42;71.30;102721.34;4968465;28;20035;-80
2022/03/01 06:16:57;;;;;;;53.78;21.75;;;;;;;1.43;71.50;102733.38;4986144;28;20045;-81
2022/03/01 06:19:23;;;;;;;53.63;21.13;;;;;;;1.42;70.99;102729.03;4986120;28;20026;-81
2022/03/01 06:21:48;;;;;;;51.55;21.45;;;;;;;1.41;71.77;102729.78;4968572;28;20058;-81
2022/03/01 06:24:14;;;;;;;52.70;21.73;;;;;;;1.42;71.53;102729.03;4974259;28;20026;-82
2022/03/01 06:26:39;;;;;;;50.05;20.77;;;;;;;1.40;71.46;102725.41;4986097;28;20046;-82
2022/03/01 06:29:05;;;;;;;56.50;20.70;;;;;;;1.39;71.74;102726.16;4985916;28;20081;-81
2022/03/01 06:31:30;;;;;;;49.88;21.55;;;;;;;1.36;72.40;102721.69;4985921;28;20034;-82
2022/03/01 06:33:56;;;;;;;50.53;20.52;;;;;;;1.34;71.88;102730.00;4985866;28;20039;-81
2022/03/01 06:36:22;;;;;;;48.45;21.52;;;;;;;1.30;72.11;102738.19;4985752;28;20102;-82
2022/03/01 06:38:47;;;;;;;53.88;20.63;;;;;;;1.28;72.25;102740.59;4985981;28;20077;-81
2022/03/01 06:41:13;;;;;;;50.05;22.20;;;;;;;1.31;71.91;102752.84;4968339;28;20333;-82
2022/03/01 06:43:38;;;;;;;59.17;21.60;;;;;;;1.32;72.44;102749.50;4985490;28;20094;-82
2022/03/01 06:46:07;;;;;;;52.78;21.70;;;;;;;1.32;72.31;102752.09;4985158;28;20066;-81
2022/03/01 06:48:33;;;;;;;55.67;21.15;;;;;;;1.35;71.81;102754.94;4985802;28;20190;-82
2022/03/01 06:50:58;;;;;;;50.65;21.55;;;;;;;1.34;72.52;102756.56;4985180;28;20041;-81
2022/03/01 06:53:23;;;;;;;50.00;20.45;;;;;;;1.34;72.81;102754.00;4985448;28;20183;-82
2022/03/01 06:55:49;;;;;;;47.30;20.92;;;;;;;1.35;72.80;102765.19;4985311;28;20046;-82
2022/03/01 06:58:14;;;;;;;53.38;20.98;;;;;;;1.38;73.00;102765.47;4985222;28;20085;-81
2022/03/01 07:00:40;;;;;;;49.60;20.30;;;;;;;1.41;73.37;102770.88;4985600;28;20296;-82
2022/03/01 07:03:05;;;;;;;51.85;21.27;;;;;;;1.45;73.24;102775.56;4987910;28;20085;-82
2022/03/01 07:05:31;;;;;;;57.65;24.27;;;;;;;1.50;73.45;102774.28;4967279;28;20266;-82
2022/03/01 07:07:56;;;;;;;56.15;26.05;;;;;;;1.63;72.21;102772.84;4985111;28;20324;-81
2022/03/01 07:10:22;;;;;;;57.92;23.85;;;;;;;1.72;71.91;102772.03;4967976;28;20058;-81
2022/03/01 07:12:48;;;;;;;46.10;21.15;;;;;;;1.80;71.52;102770.13;4985098;28;20038;-81
2022/03/01 07:15:14;;;;;;;47.47;21.45;;;;;;;1.84;71.62;102776.44;4983803;28;20370;-81
2022/03/01 07:17:39;;;;;;;47.88;21.10;;;;;;;1.85;71.92;102771.44;4986228;28;20058;-81
2022/03/01 07:20:07;;;;;;;48.03;21.40;;;;;;;1.92;71.27;102762.63;4983166;28;20038;-81
2022/03/01 07:22:32;;;;;;;51.13;21.13;;;;;;;1.97;71.22;102763.94;4984601;28;20054;-80
2022/03/01 07:24:58;;;;;;;47.80;20.15;;;;;;;2.02;70.29;102754.06;4960773;28;20049;-80
2022/03/01 07:27:23;;;;;;;50.92;20.92;;;;;;;2.08;69.25;102768.34;4985038;28;20197;-80
2022/03/01 07:29:49;;;;;;;47.20;20.05;;;;;;;2.11;69.66;102775.44;4985115;28;20159;-80
2022/03/01 07:32:14;;;;;;;50.58;21.42;;;;;;;2.16;68.91;102771.63;4984790;28;20051;-80
2022/03/01 07:34:41;;;;;;;52.50;21.48;;;;;;;2.22;69.37;102773.84;4984536;28;20042;-80
2022/03/01 07:37:06;;;;;;;53.50;21.08;;;;;;;2.31;69.19;102771.19;4984531;28;20367;-79
2022/03/01 07:39:32;;;;;;;50.10;21.20;;;;;;;2.37;69.22;102780.31;4984483;28;20034;-79
2022/03/01 07:41:57;;;;;;;48.00;19.95;;;;;;;2.43;68.98;102791.19;4984787;28;20077;-78
2022/03/01 07:44:23;;;;;;;52.30;21.92;;;;;;;2.50;68.30;102782.31;4967202;28;20104;-78
2022/03/01 07:46:49;;;;;;;51.75;21.23;;;;;;;2.56;68.41;102802.53;4984397;28;20270;-78
2022/03/01 07:49:14;;;;;;;52.60;21.00;;;;;;;2.58;68.01;102793.28;4984388;28;20039;-78
2022/03/01 07:51:40;;;;;;;58.33;22.27;;;;;;;2.58;68.95;102783.91;4982947;28;20038;-77
2022/03/01 07:54:06;;;;;;;56.17;21.63;;;;;;;2.60;68.71;102781.44;4991025;28;20042;-77
2022/03/01 07:56:31;;;;;;;51.45;21.52;;;;;;;2.60;67.24;102774.63;4984604;28;20304;-78
2022/03/01 07:58:57;;;;;;;53.40;22.23;;;;;;;2.61;68.46;102779.00;4967111;28;20030;-77
2022/03/01 08:01:22;;;;;;;52.30;21.30;;;;;;;2.59;68.46;102771.91;4975887;28;20027;-77
2022/03/01 08:03:48;;;;;;;51.13;21.52;;;;;;;2.56;69.61;102772.56;4966923;28;20047;-76
2022/03/01 08:06:15;;;;;;;52.90;21.27;;;;;;;2.54;68.67;102773.22;4984216;28;20304;-76
2022/03/01 08:08:41;;;;;;;50.72;21.08;;;;;;;2.50;68.23;102778.84;4987126;28;20030;-76
2022/03/01 08:11:06;;;;;;;49.65;21.33;;;;;;;2.49;68.98;102779.59;4988470;28;20038;-76
2022/03/01 08:13:32;;;;;;;52.08;21.88;;;;;;;2.48;68.78;102785.50;4971800;28;20034;-76
2022/03/01 08:15:58;;;;;;;53.50;21.60;;;;;;;2.48;69.06;102786.44;4965939;28;20078;-76
2022/03/01 08:18:23;;;;;;;53.45;22.13;;;;;;;2.51;69.00;102781.56;4971019;28;20866;-75
2022/03/01 08:20:48;;;;;;;49.25;20.48;;;;;;;2.53;68.83;102782.56;4986033;28;20364;-75
2022/03/01 08:23:14;;;;;;;53.15;22.08;;;;;;;2.55;70.17;102782.69;4965077;28;20081;-75
2022/03/01 08:25:39;;;;;;;52.28;21.20;;;;;;;2.57;69.48;102779.50;4968997;28;20026;-75
2022/03/01 08:28:05;;;;;;;54.28;21.27;;;;;;;2.61;70.20;102784.16;4988151;28;20046;-75
2022/03/01 08:30:30;;;;;;;51.72;21.10;;;;;;;2.65;69.43;102797.28;4987640;28;20039;-75
2022/03/01 08:32:56;;;;;;;56.28;21.33;;;;;;;2.68;69.85;102793.31;4978803;28;20049;-76
2022/03/01 08:35:22;;;;;;;54.42;22.08;;;;;;;2.74;68.76;102800.69;4982311;28;20034;-75
2022/03/01 08:37:48;;;;;;;57.03;22.38;;;;;;;2.76;69.27;102797.44;4982163;28;20038;-75
2022/03/01 08:40:14;;;;;;;54.00;22.60;;;;;;;2.80;69.18;102793.47;4981960;28;20085;-75
2022/03/01 08:42:40;;;;;;;52.60;22.00;;;;;;;2.84;68.32;102798.13;4982457;28;20282;-75
2022/03/01 08:45:07;;;;;;;50.67;21.33;;;;;;;2.89;68.70;102801.09;4983628;28;20057;-75
2022/03/01 08:47:32;;;;;;;51.63;21.77;;;;;;;2.93;69.95;102796.34;4960721;28;20286;-75
2022/03/01 08:49:58;;;;;;;60.33;23.50;;;;;;;2.98;68.35;102798.41;4983797;28;20027;-75
2022/03/01 08:52:23;;;;;;;59.10;22.55;;;;;;;3.02;68.86;102808.22;4983274;28;20077;-75
2022/03/01 08:54:48;;;;;;;57.05;22.33;;;;;;;3.08;69.74;102814.78;4983845;28;20101;-75
2022/03/01 08:57:14;;;;;;;58.33;22.45;;;;;;;3.15;69.45;102813.63;4983691;28;20057;-75
2022/03/01 08:59:40;;;;;;;58.47;22.77;;;;;;;3.20;68.54;102816.59;4983544;28;20034;-74
2022/03/01 09:02:05;;;;;;;55.33;21.48;;;;;;;3.25;67.93;102815.34;4968417;28;20035;-75
2022/03/01 09:04:32;;;;;;;51.17;21.48;;;;;;;3.32;67.11;102820.22;4969777;28;20294;-76
2022/03/01 09:06:57;;;;;;;53.90;22.75;;;;;;;3.38;67.31;102827.59;4983050;28;20038;-76
2022/03/01 09:09:22;;;;;;;60.95;22.65;;;;;;;3.46;67.03;102826.53;4984563;28;20065;-76
2022/03/01 09:11:47;;;;;;;57.63;22.45;;;;;;;3.55;65.69;102824.75;4986000;28;20037;-75
2022/03/01 09:14:13;;;;;;;55.25;22.40;;;;;;;3.68;67.02;102834.41;4983686;28;20042;-76
2022/03/01 09:16:38;;;;;;;48.67;20.92;;;;;;;3.83;65.95;102824.47;4982387;28;20039;-76
2022/03/01 09:19:04;;;;;;;56.10;21.52;;;;;;;3.99;64.58;102827.53;4982040;28;20325;-76
2022/03/01 09:21:30;;;;;;;53.05;21.02;;;;;;;4.14;65.54;102827.00;4981868;28;20042;-75
2022/03/01 09:23:55;;;;;;;65.03;23.20;;;;;;;4.26;64.74;102814.19;4982247;28;20134;-76
2022/03/01 09:26:20;;;;;;;54.85;22.40;;;;;;;4.36;65.45;102811.59;4964787;28;20042;-76
2022/03/01 09:28:46;;;;;;;54.28;21.20;;;;;;;4.41;63.65;102805.09;4985323;28;20034;-76
2022/03/01 09:31:11;;;;;;;58.33;22.60;;;;;;;4.47;64.17;102808.16;4986839;28;20031;-76
2022/03/01 09:33:42;;;;;;;59.60;22.42;;;;;;;4.52;63.16;102814.63;4987234;28;20027;-75
2022/03/01 09:36:10;;;;;;;51.92;21.50;;;;;;;4.58;64.53;102811.63;4986986;28;20070;-76
2022/03/01 09:38:35;;;;;;;56.40;21.80;;;;;;;4.61;63.27;102813.56;4987263;28;20054;-76
2022/03/01 09:41:01;;;;;;;57.33;23.10;;;;;;;4.67;64.07;102814.94;4969968;28;20117;-76
2022/03/01 09:43:26;;;;;;;59.47;23.00;;;;;;;4.71;63.47;102808.34;4986877;28;20320;-76
2022/03/01 09:45:51;;;;;;;55.15;22.88;;;;;;;4.76;61.71;102806.13;4987288;28;20057;-76
2022/03/01 09:48:17;;;;;;;58.92;21.75;;;;;;;4.82;62.09;102814.34;4987202;28;20288;-76
2022/03/01 09:50:45;;;;;;;52.65;22.15;;;;;;;4.87;61.30;102813.03;4987216;28;20372;-76
2022/03/01 09:53:10;;;;;;;63.20;23.10;;;;;;;4.93;60.54;102825.53;4986485;28;20385;-76
2022/03/01 09:55:35;;;;;;;53.47;21.85;;;;;;;4.99;62.07;102828.59;4989250;28;20048;-73
2022/03/01 09:58:01;;;;;;;57.25;22.30;;;;;;;5.02;60.92;102827.13;4986691;28;20320;-73
2022/03/01 10:00:26;;;;;;;57.28;22.92;;;;;;;5.05;60.56;102821.31;4986684;28;20062;-73
2022/03/01 10:02:56;;;;;;;56.03;22.63;;;;;;;5.08;59.86;102836.16;4986528;28;20046;-73
2022/03/01 10:05:40;;;;;;;54.30;22.27;;;;;;;5.10;60.48;102829.41;4980351;28;20085;-73
2022/03/01 10:08:08;;;;;;;56.08;21.48;;;;;;;5.12;60.49;102835.63;4986716;28;20041;-74
2022/03/01 10:10:38;;;;;;;57.55;23.10;;;;;;;5.13;61.32;102835.72;4986337;28;20189;-74
2022/03/01 10:13:03;;;;;;;62.70;22.90;;;;;;;5.17;58.84;102831.69;4986572;28;20048;-74
2022/03/01 10:15:29;;;;;;;59.42;22.98;;;;;;;5.19;57.93;102835.31;4986683;28;20224;-74
2022/03/01 10:17:55;;;;;;;60.33;22.33;;;;;;;5.21;61.31;102834.66;4986589;28;20034;-74
2022/03/01 10:20:21;;;;;;;60.70;23.08;;;;;;;5.26;60.48;102836.66;4968882;28;20041;-74
2022/03/01 10:22:51;;;;;;;59.30;22.92;;;;;;;5.29;61.35;102837.81;4986032;28;20027;-74
2022/03/01 10:25:20;;;;;;;60.38;22.33;;;;;;;5.33;58.91;102836.38;4983535;28;20034;-74
2022/03/01 10:27:47;;;;;;;59.00;22.85;;;;;;;5.38;60.94;102829.88;4985706;28;20035;-74
2022/03/01 10:30:25;;;;;;;63.40;23.10;;;;;;;5.42;60.13;102823.25;4985558;28;20039;-73
2022/03/01 10:32:51;;;;;;;62.45;23.98;;;;;;;5.46;58.10;102825.28;4966483;28;20042;-73
2022/03/01 10:35:16;;;;;;;62.00;23.35;;;;;;;5.51;58.16;102818.78;4966751;28;20032;-74
2022/03/01 10:37:41;;;;;;;56.33;21.75;;;;;;;5.56;58.39;102814.84;4967058;28;20062;-74
2022/03/01 10:40:21;;;;;;;55.63;21.83;;;;;;;5.61;59.37;102813.53;4972006;28;20042;-73
2022/03/01 10:43:09;;;;;;;59.80;23.33;;;;;;;5.65;58.00;102812.97;4985993;28;20026;-73
2022/03/01 10:45:36;;;;;;;60.97;22.35;;;;;;;5.71;58.09;102807.38;4986245;28;20022;-74
2022/03/01 10:48:03;;;;;;;56.15;21.75;;;;;;;5.78;58.26;102813.88;4986016;28;20030;-74
2022/03/01 10:50:28;;;;;;;61.50;23.85;;;;;;;5.84;58.20;102819.53;4985772;28;20336;-74
2022/03/01 10:52:53;;;;;;;59.95;22.75;;;;;;;5.91;58.08;102821.81;4985636;28;20059;-73
2022/03/01 10:55:23;;;;;;;61.38;24.17;;;;;;;5.98;56.86;102824.09;4968857;28;20078;-74
2022/03/01 10:58:06;;;;;;;59.75;22.85;;;;;;;6.06;58.48;102828.13;4968618;28;20035;-74
2022/03/01 11:00:34;;;;;;;60.63;22.77;;;;;;;6.17;57.00;102835.78;4985455;28;20038;-73
2022/03/01 11:02:59;;;;;;;56.25;22.52;;;;;;;6.25;55.49;102824.31;4985587;28;20035;-74
2022/03/01 11:05:28;;;;;;;57.92;22.95;;;;;;;6.35;56.42;102824.19;4985746;28;20069;-73
2022/03/01 11:07:54;;;;;;;58.17;22.33;;;;;;;6.41;56.57;102819.44;4986265;28;20045;-74
2022/03/01 11:10:22;;;;;;;57.65;24.33;;;;;;;6.49;56.73;102832.06;4989793;28;20296;-74
2022/03/01 11:12:48;;;;;;;56.60;22.48;;;;;;;6.55;56.50;102822.16;4988135;28;20309;-74